createdAt,value
2022-12-24T00:03:16.030Z,4.78
2022-12-24T00:08:17.609Z,4.47
2022-12-24T00:13:19.512Z,4.25
2022-12-24T00:18:21.087Z,4.32
2022-12-24T00:23:22.894Z,4.80
2022-12-24T00:28:24.444Z,3.97
2022-12-24T00:33:26.104Z,3.80
2022-12-24T00:38:27.671Z,3.97
2022-12-24T00:43:30.111Z,3.80
2022-12-24T00:48:31.667Z,5.10
2022-12-24T00:53:33.278Z,5.00
2022-12-24T00:58:35.005Z,3.63
2022-12-24T01:03:36.682Z,3.35
2022-12-24T01:08:38.598Z,4.20
2022-12-24T01:13:40.286Z,3.50
2022-12-24T01:18:41.922Z,3.78
2022-12-24T01:23:44.018Z,2.80
2022-12-24T01:28:45.617Z,2.67
2022-12-24T01:33:49.064Z,3.58
2022-12-24T01:38:50.657Z,3.17
2022-12-24T01:43:52.253Z,2.75
2022-12-24T01:48:59.696Z,4.00
2022-12-24T01:54:13.061Z,3.83
2022-12-24T01:59:18.033Z,2.75
2022-12-24T02:04:38.049Z,3.60
2022-12-24T02:09:40.112Z,2.97
2022-12-24T02:14:41.677Z,2.40
2022-12-24T02:20:20.889Z,3.80
2022-12-24T02:25:50.466Z,3.97
2022-12-24T02:31:05.686Z,3.88
2022-12-24T02:36:20.485Z,5.55
2022-12-24T02:41:26.890Z,3.78
2022-12-24T02:46:32.299Z,3.75
2022-12-24T02:51:35.005Z,3.03
2022-12-24T02:57:08.405Z,3.65
2022-12-24T03:02:26.669Z,3.20
2022-12-24T03:07:47.608Z,4.32
2022-12-24T03:13:07.788Z,3.75
2022-12-24T03:18:12.045Z,3.10
2022-12-24T03:23:14.112Z,3.58
2022-12-24T03:28:18.846Z,2.75
2022-12-24T03:33:20.917Z,2.67
2022-12-24T03:38:22.573Z,2.10
2022-12-24T03:43:24.130Z,2.35
2022-12-24T03:48:32.385Z,1.77
2022-12-24T03:53:34.336Z,2.97
2022-12-24T03:58:35.986Z,2.30
2022-12-24T04:03:37.582Z,2.25
2022-12-24T04:08:40.166Z,2.63
2022-12-24T04:13:41.941Z,2.20
2022-12-24T04:18:43.781Z,2.90
2022-12-24T04:23:45.815Z,4.63
2022-12-24T04:28:47.372Z,4.25
2022-12-24T04:33:51.797Z,3.55
2022-12-24T04:38:53.336Z,4.88
2022-12-24T04:43:55.420Z,5.00
2022-12-24T04:48:57.263Z,3.58
2022-12-24T04:53:58.895Z,2.03
2022-12-24T04:59:01.659Z,2.15
2022-12-24T05:04:03.253Z,1.58
2022-12-24T05:09:04.882Z,1.67
2022-12-24T05:14:06.567Z,1.65
2022-12-24T05:19:08.204Z,1.45
2022-12-24T05:24:13.104Z,2.03
2022-12-24T05:29:14.776Z,1.58
2022-12-24T05:34:16.839Z,1.60
2022-12-24T05:39:19.000Z,2.75
2022-12-24T05:44:20.651Z,3.20
2022-12-24T05:49:22.227Z,3.20
2022-12-24T05:54:23.933Z,4.30
2022-12-24T05:59:25.496Z,3.63
2022-12-24T06:04:29.283Z,2.53
2022-12-24T06:09:31.174Z,3.70
2022-12-24T06:14:32.785Z,4.82
2022-12-24T06:19:34.343Z,3.28
2022-12-24T06:24:35.952Z,3.58
2022-12-24T06:29:37.529Z,3.30
2022-12-24T06:34:39.182Z,3.88
2022-12-24T06:39:40.692Z,3.65
2022-12-24T06:44:42.303Z,4.75
2022-12-24T06:49:43.859Z,3.00
2022-12-24T06:54:45.523Z,5.20
2022-12-24T06:59:47.180Z,6.70
2022-12-24T07:04:48.813Z,3.78
2022-12-24T07:09:50.421Z,5.05
2022-12-24T07:14:51.950Z,3.90
2022-12-24T07:19:53.685Z,5.68
2022-12-24T07:24:55.289Z,6.28
2022-12-24T07:29:56.860Z,3.90
2022-12-24T07:34:58.610Z,5.43
2022-12-24T07:40:00.388Z,5.40
2022-12-24T07:45:02.035Z,4.95
2022-12-24T07:50:05.350Z,5.00
2022-12-24T07:55:07.122Z,4.30
2022-12-24T08:00:09.175Z,4.03
2022-12-24T08:05:13.421Z,3.90
2022-12-24T08:10:15.168Z,3.67
2022-12-24T08:15:17.399Z,3.75
2022-12-24T08:20:19.194Z,3.78
2022-12-24T08:25:20.754Z,3.60
2022-12-24T08:30:22.423Z,4.55
2022-12-24T08:35:24.076Z,4.38
2022-12-24T08:40:26.012Z,3.60
2022-12-24T08:45:27.584Z,3.58
2022-12-24T08:50:29.137Z,5.13
2022-12-24T08:55:31.208Z,4.05
2022-12-24T09:00:32.754Z,3.80
2022-12-24T09:05:34.300Z,4.28
2022-12-24T09:10:35.868Z,4.90
2022-12-24T09:15:37.688Z,4.68
2022-12-24T09:20:44.287Z,3.47
2022-12-24T09:25:48.161Z,5.10
2022-12-24T09:31:00.932Z,4.55
2022-12-24T09:36:03.619Z,4.20
2022-12-24T09:41:53.218Z,4.25
2022-12-24T09:46:55.757Z,3.63
2022-12-24T09:52:04.736Z,6.18
2022-12-24T09:57:21.170Z,3.63
2022-12-24T10:02:23.078Z,4.05
2022-12-24T10:07:45.616Z,4.35
2022-12-24T10:12:59.314Z,3.95
2022-12-24T10:18:26.922Z,4.10
2022-12-24T10:23:35.997Z,4.43
2022-12-24T10:28:41.229Z,3.88
2022-12-24T10:33:49.534Z,5.10
2022-12-24T10:38:51.307Z,5.32
2022-12-24T10:43:54.143Z,3.63
2022-12-24T10:49:02.330Z,3.45
2022-12-24T10:54:10.842Z,3.70
2022-12-24T10:59:34.167Z,3.75
2022-12-24T11:04:49.380Z,4.45
2022-12-24T11:10:08.049Z,4.05
2022-12-24T11:15:19.132Z,5.78
2022-12-24T11:20:27.206Z,3.65
2022-12-24T11:25:31.422Z,3.75
2022-12-24T11:30:32.977Z,4.47
2022-12-24T11:35:41.478Z,4.88
2022-12-24T11:40:46.304Z,3.53
2022-12-24T11:45:56.618Z,4.60
2022-12-24T11:51:01.228Z,5.63
2022-12-24T11:56:12.126Z,5.20
2022-12-24T12:01:20.788Z,6.10
2022-12-24T12:06:34.263Z,4.10
2022-12-24T12:11:40.101Z,4.57
2022-12-24T12:16:57.576Z,3.83
2022-12-24T12:22:04.014Z,4.60
2022-12-24T12:27:26.865Z,4.80
2022-12-24T12:32:34.715Z,5.28
2022-12-24T12:37:41.430Z,4.78
2022-12-24T12:43:28.090Z,5.38
2022-12-24T12:48:29.576Z,4.30
2022-12-24T12:53:42.746Z,4.15
2022-12-24T12:59:15.337Z,4.63
2022-12-24T13:04:30.471Z,3.58
2022-12-24T13:09:50.398Z,4.47
2022-12-24T13:15:13.556Z,4.70
2022-12-24T13:20:20.740Z,6.00
2022-12-24T13:25:28.708Z,5.88
2022-12-24T13:30:40.263Z,4.15
2022-12-24T13:36:08.576Z,3.25
2022-12-24T13:41:38.316Z,5.05
2022-12-24T13:47:05.488Z,4.20
2022-12-24T13:52:11.296Z,5.28
2022-12-24T13:57:42.306Z,4.87
2022-12-24T14:03:06.857Z,4.60
2022-12-24T14:08:30.435Z,4.85
2022-12-24T14:13:40.798Z,6.05
2022-12-24T14:19:04.548Z,5.63
2022-12-24T14:24:27.324Z,4.70
2022-12-24T14:29:33.868Z,5.00
2022-12-24T14:39:43.668Z,4.30
2022-12-24T14:45:06.944Z,4.13
2022-12-24T14:50:36.199Z,5.90
2022-12-24T14:55:44.429Z,4.78
2022-12-24T15:00:46.401Z,6.03
2022-12-24T15:05:57.822Z,5.03
2022-12-24T15:11:02.987Z,4.35
2022-12-24T15:16:24.429Z,4.30
2022-12-24T15:21:30.409Z,5.10
2022-12-24T15:26:35.436Z,5.67
2022-12-24T15:31:37.124Z,4.53
2022-12-24T15:36:39.152Z,5.97
2022-12-24T15:41:43.896Z,5.72
2022-12-24T15:46:46.058Z,4.80
2022-12-24T15:51:47.883Z,6.03
2022-12-24T15:56:49.796Z,4.78
2022-12-24T16:01:51.958Z,5.95
2022-12-24T16:06:56.722Z,6.55
2022-12-24T16:12:03.250Z,5.22
2022-12-24T16:17:37.198Z,6.95
2022-12-24T16:22:39.052Z,17.60
2022-12-24T16:27:40.741Z,10.07
2022-12-24T16:32:42.503Z,6.93
2022-12-24T16:37:44.134Z,6.72
2022-12-24T16:42:45.793Z,7.47
2022-12-24T16:47:47.433Z,6.38
2022-12-24T16:52:49.084Z,5.70
2022-12-24T16:57:50.806Z,6.10
2022-12-24T17:02:53.355Z,6.03
2022-12-24T17:07:55.151Z,8.45
2022-12-24T17:12:56.787Z,6.45
2022-12-24T17:18:00.491Z,6.43
2022-12-24T17:23:02.254Z,9.75
2022-12-24T17:28:03.992Z,8.18
2022-12-24T17:33:10.896Z,10.88
2022-12-24T17:38:15.892Z,10.30
2022-12-24T17:43:17.551Z,8.50
2022-12-24T17:48:19.105Z,6.90
2022-12-24T17:53:20.723Z,8.63
2022-12-24T17:58:22.379Z,8.25
2022-12-24T18:03:24.875Z,8.63
2022-12-24T18:08:26.646Z,9.88
2022-12-24T18:13:28.319Z,8.25
2022-12-24T18:18:29.843Z,6.97
2022-12-24T18:23:31.473Z,7.50
2022-12-24T18:28:33.132Z,8.05
2022-12-24T18:33:35.371Z,9.25
2022-12-24T18:38:37.769Z,8.93
2022-12-24T18:43:39.838Z,9.25
2022-12-24T18:48:41.842Z,8.40
2022-12-24T18:53:43.415Z,8.60
2022-12-24T18:58:45.296Z,9.85
2022-12-24T19:03:47.555Z,8.43
2022-12-24T19:08:59.030Z,8.55
2022-12-24T19:14:04.247Z,9.27
2022-12-24T19:19:08.898Z,10.75
2022-12-24T19:24:10.577Z,10.18
2022-12-24T19:29:12.454Z,8.65
2022-12-24T19:34:14.244Z,9.15
2022-12-24T19:39:16.214Z,10.55
2022-12-24T19:44:17.995Z,7.95
2022-12-24T19:49:19.872Z,9.75
2022-12-24T19:54:21.578Z,13.10
2022-12-24T19:59:23.153Z,8.10
2022-12-24T20:04:24.697Z,8.35
2022-12-24T20:09:26.277Z,8.80
2022-12-24T20:14:27.970Z,9.32
2022-12-24T20:19:29.692Z,10.13
2022-12-24T20:24:31.330Z,8.40
2022-12-24T20:29:32.877Z,7.32
2022-12-24T20:34:35.251Z,6.90
2022-12-24T20:39:36.922Z,8.00
2022-12-24T20:44:38.727Z,7.28
2022-12-24T20:49:40.510Z,6.88
2022-12-24T20:54:42.097Z,7.05
2022-12-24T20:59:43.676Z,7.45
2022-12-24T21:04:45.209Z,6.40
2022-12-24T21:09:46.786Z,7.93
2022-12-24T21:14:48.334Z,8.25
2022-12-24T21:19:50.050Z,7.40
2022-12-24T21:24:52.766Z,7.28
2022-12-24T21:29:54.332Z,8.45
2022-12-24T21:34:55.895Z,7.43
2022-12-24T21:39:57.419Z,6.90
2022-12-24T21:44:59.470Z,6.55
2022-12-24T21:50:01.030Z,8.32
2022-12-24T21:55:02.653Z,8.32
2022-12-24T22:00:04.784Z,8.90
2022-12-24T22:05:06.792Z,9.15
2022-12-24T22:10:10.074Z,8.48
2022-12-24T22:15:11.925Z,9.02
2022-12-24T22:20:13.535Z,7.35
2022-12-24T22:25:15.778Z,8.90
2022-12-24T22:30:17.473Z,10.63
2022-12-24T22:35:19.107Z,9.48
2022-12-24T22:40:20.595Z,9.40
2022-12-24T22:45:22.950Z,8.52
2022-12-24T22:50:24.631Z,9.23
2022-12-24T22:55:26.149Z,7.20
2022-12-24T23:00:57.043Z,7.88
2022-12-24T23:06:00.543Z,7.57
2022-12-24T23:11:11.763Z,8.38
2022-12-24T23:16:13.348Z,7.22
2022-12-24T23:21:15.058Z,7.13
2022-12-24T23:26:19.329Z,6.60
2022-12-24T23:31:22.527Z,6.72
2022-12-24T23:36:24.115Z,7.20
2022-12-24T23:41:25.716Z,7.07
2022-12-24T23:46:27.285Z,6.13
2022-12-24T23:51:28.843Z,6.57
2022-12-24T23:56:30.358Z,6.38
